Time;durP1;ratioP1;P1;durP2;ratioP2;P2;SDS_P1;SDS_P2;PMS_P1;PMS_P2;Temp;Humidity;BMP_temperature;BMP_pressure;BME280_temperature;BME280_humidity;BME280_pressure;Samples;Min_cycle;Max_cycle;Signal;HPM_P1;HPM_P2
2023/03/25 00:00:06;;;;;;;15.10;7.85;;;11.70;99.90;;;;;;5033277;28;20022;-71
2023/03/25 00:02:33;;;;;;;25.80;6.50;;;11.80;99.90;;;;;;5032518;28;20044;-71
2023/03/25 00:04:59;;;;;;;16.83;7.78;;;11.70;99.90;;;;;;5032970;28;20041;-71
2023/03/25 00:07:26;;;;;;;22.08;8.95;;;11.80;99.90;;;;;;5033139;28;20060;-71
2023/03/25 00:09:52;;;;;;;18.92;7.57;;;11.70;99.90;;;;;;5032754;28;20482;-71
2023/03/25 00:12:18;;;;;;;23.30;6.63;;;11.80;99.90;;;;;;5027501;28;20033;-71
2023/03/25 00:14:53;;;;;;;16.42;5.90;;;11.70;99.90;;;;;;5013134;28;20037;-71
2023/03/25 00:17:20;;;;;;;22.90;6.30;;;11.80;99.90;;;;;;5012698;28;20041;-71
2023/03/25 00:19:49;;;;;;;19.90;5.85;;;11.70;99.90;;;;;;5012885;28;20025;-71
2023/03/25 00:22:16;;;;;;;17.65;5.50;;;11.60;99.90;;;;;;5012611;28;20403;-70
2023/03/25 00:24:42;;;;;;;12.38;5.22;;;11.50;99.90;;;;;;5012753;28;20041;-70
2023/03/25 00:27:09;;;;;;;10.35;5.70;;;11.40;99.90;;;;;;5012656;28;20038;-71
2023/03/25 00:29:35;;;;;;;9.98;5.93;;;11.40;99.90;;;;;;5015196;28;20030;-71
2023/03/25 00:32:01;;;;;;;15.32;10.98;;;11.40;99.90;;;;;;5032375;28;20402;-70
2023/03/25 00:34:27;;;;;;;11.80;6.13;;;11.40;99.90;;;;;;5031254;28;20029;-71
2023/03/25 00:36:53;;;;;;;16.30;5.95;;;11.30;99.90;;;;;;5032142;28;20474;-71
2023/03/25 00:39:19;;;;;;;13.23;6.53;;;11.30;99.90;;;;;;5032402;28;20025;-71
2023/03/25 00:41:47;;;;;;;25.20;9.23;;;11.40;99.90;;;;;;5032445;28;20040;-71
2023/03/25 00:44:13;;;;;;;22.75;7.90;;;11.40;99.90;;;;;;5032470;28;20390;-71
2023/03/25 00:46:39;;;;;;;26.05;8.45;;;11.50;99.90;;;;;;5032103;28;20045;-71
2023/03/25 00:49:06;;;;;;;32.00;9.30;;;11.50;99.90;;;;;;5032643;28;20037;-71
2023/03/25 00:51:32;;;;;;;26.30;8.60;;;11.60;99.90;;;;;;5032220;28;20041;-71
2023/03/25 00:54:02;;;;;;;30.80;8.70;;;11.60;99.90;;;;;;5031921;28;20489;-71
2023/03/25 00:56:28;;;;;;;28.92;9.75;;;11.50;99.90;;;;;;5032293;28;20475;-71
2023/03/25 00:58:55;;;;;;;31.52;9.40;;;11.60;99.90;;;;;;5032122;28;20364;-71
2023/03/25 01:01:28;;;;;;;30.63;9.98;;;11.50;99.90;;;;;;5031941;28;20479;-71
2023/03/25 01:03:58;;;;;;;23.95;8.70;;;11.50;99.90;;;;;;5032233;28;20025;-71
2023/03/25 01:06:27;;;;;;;32.22;8.18;;;11.60;99.90;;;;;;5031659;28;20462;-71
2023/03/25 01:08:55;;;;;;;22.98;9.18;;;11.50;99.90;;;;;;5032420;28;20052;-71
2023/03/25 01:11:24;;;;;;;20.65;6.90;;;11.50;99.90;;;;;;5032571;28;20044;-71
2023/03/25 01:13:50;;;;;;;20.58;6.93;;;11.50;99.90;;;;;;5014805;28;20046;-71
2023/03/25 01:16:16;;;;;;;22.50;8.25;;;11.50;99.90;;;;;;5012399;28;20038;-71
2023/03/25 01:18:42;;;;;;;16.25;5.85;;;11.50;99.90;;;;;;5012445;28;20029;-70
2023/03/25 01:21:08;;;;;;;19.90;6.60;;;11.50;99.90;;;;;;5012027;28;20416;-71
2023/03/25 01:23:34;;;;;;;14.45;6.22;;;11.50;99.90;;;;;;5012168;28;20483;-71
2023/03/25 01:26:00;;;;;;;19.85;6.38;;;11.50;99.90;;;;;;5012250;28;20038;-71
2023/03/25 01:28:27;;;;;;;11.45;5.20;;;11.40;99.90;;;;;;5012250;28;20037;-71
2023/03/25 01:31:00;;;;;;;19.02;6.32;;;11.40;99.90;;;;;;5024961;28;20037;-70
2023/03/25 01:33:26;;;;;;;14.35;5.60;;;11.40;99.90;;;;;;5032080;28;20486;-70
2023/03/25 01:35:52;;;;;;;11.10;5.40;;;11.30;99.90;;;;;;5031611;28;20044;-71
2023/03/25 01:38:19;;;;;;;12.15;5.80;;;11.30;99.90;;;;;;5031844;28;20030;-71
2023/03/25 01:40:45;;;;;;;14.10;6.28;;;11.30;99.90;;;;;;5032319;28;20041;-71
2023/03/25 01:43:12;;;;;;;12.68;4.93;;;11.20;99.90;;;;;;5030654;28;20025;-71
2023/03/25 01:45:38;;;;;;;15.65;6.95;;;11.20;99.90;;;;;;5029701;28;20029;-70
2023/03/25 01:48:09;;;;;;;15.75;5.72;;;11.20;99.90;;;;;;5031867;28;20048;-70
2023/03/25 01:50:41;;;;;;;10.18;5.10;;;11.20;99.90;;;;;;5014523;28;20021;-71
2023/03/25 01:53:07;;;;;;;10.30;5.32;;;11.20;99.90;;;;;;5031945;28;20041;-71
2023/03/25 01:55:33;;;;;;;7.95;4.65;;;11.20;99.90;;;;;;5031727;28;20029;-71
2023/03/25 01:58:01;;;;;;;8.45;5.05;;;11.10;99.90;;;;;;5014180;28;20030;-71
2023/03/25 02:00:27;;;;;;;9.63;4.80;;;11.10;99.90;;;;;;5014059;28;20064;-71
2023/03/25 02:02:57;;;;;;;12.10;5.00;;;11.10;99.90;;;;;;5031658;28;20029;-70
2023/03/25 02:05:52;;;;;;;5.63;5.03;;;11.10;99.90;;;;;;5031960;28;20034;-70
2023/03/25 02:08:19;;;;;;;12.00;5.38;;;11.10;99.90;;;;;;5020247;28;20042;-71
2023/03/25 02:10:45;;;;;;;7.47;4.97;;;11.00;99.90;;;;;;5017621;28;20394;-71
2023/03/25 02:13:11;;;;;;;7.88;5.40;;;11.00;99.90;;;;;;5021463;28;20045;-71
2023/03/25 02:16:01;;;;;;;11.80;5.75;;;11.00;99.90;;;;;;5030071;28;20059;-71
2023/03/25 02:18:45;;;;;;;7.95;5.18;;;11.00;99.90;;;;;;5013682;28;20375;-71
2023/03/25 02:21:44;;;;;;;5.90;4.80;;;10.90;99.90;;;;;;5013956;28;20030;-70
2023/03/25 02:24:34;;;;;;;9.60;6.75;;;10.90;99.90;;;;;;5015165;28;20509;-71
2023/03/25 02:27:32;;;;;;;10.88;5.55;;;10.90;99.90;;;;;;5014794;28;20050;-71
2023/03/25 02:30:16;;;;;;;8.30;5.40;;;10.90;99.90;;;;;;5019535;28;20382;-71
2023/03/25 02:32:45;;;;;;;10.30;6.25;;;10.80;99.90;;;;;;5034131;28;20041;-70
2023/03/25 02:35:53;;;;;;;9.68;5.35;;;10.80;99.90;;;;;;5034489;28;20041;-71
2023/03/25 02:38:39;;;;;;;6.82;5.10;;;10.70;99.90;;;;;;5032298;28;20137;-71
2023/03/25 02:41:28;;;;;;;8.23;5.43;;;10.70;99.90;;;;;;5032283;28;20037;-71
2023/03/25 02:44:13;;;;;;;7.97;5.18;;;10.70;99.90;;;;;;5015820;28;20048;-70
2023/03/25 02:46:40;;;;;;;11.25;5.72;;;10.70;99.90;;;;;;5017610;28;20049;-71
2023/03/25 02:49:21;;;;;;;9.60;5.32;;;10.60;99.90;;;;;;5015720;28;20049;-71
2023/03/25 02:51:58;;;;;;;7.82;4.65;;;10.60;99.90;;;;;;5016702;28;20445;-71
2023/03/25 02:54:24;;;;;;;10.38;6.38;;;10.60;99.90;;;;;;5015601;28;20038;-70
2023/03/25 02:56:50;;;;;;;10.45;5.20;;;10.60;99.90;;;;;;5015510;28;20052;-71
2023/03/25 02:59:17;;;;;;;9.88;5.50;;;10.50;99.90;;;;;;5015316;28;20566;-71
2023/03/25 03:01:44;;;;;;;9.63;5.80;;;10.50;99.90;;;;;;5015282;28;20140;-71
2023/03/25 03:04:10;;;;;;;9.30;4.65;;;10.50;99.90;;;;;;5031579;28;20033;-70
2023/03/25 03:06:39;;;;;;;12.40;5.05;;;10.40;99.90;;;;;;5032002;28;20044;-71
2023/03/25 03:09:36;;;;;;;10.98;6.97;;;10.50;99.90;;;;;;5015269;28;20474;-72
2023/03/25 03:12:51;;;;;;;11.80;5.90;;;10.40;99.90;;;;;;5011453;28;20041;-70
2023/03/25 03:15:35;;;;;;;12.40;5.57;;;10.50;99.90;;;;;;4968994;28;20050;-71
2023/03/25 03:18:07;;;;;;;11.75;5.03;;;10.50;99.90;;;;;;4941315;28;20035;-71
2023/03/25 03:20:51;;;;;;;12.10;5.28;;;10.50;99.90;;;;;;4957398;28;20063;-71
2023/03/25 03:23:32;;;;;;;12.80;5.00;;;10.50;99.90;;;;;;4972496;28;20097;-71
2023/03/25 03:26:09;;;;;;;;;;;10.50;99.90;;;;;;4973311;28;20035;-71
2023/03/25 03:28:44;;;;;;;6.90;4.38;;;10.40;99.90;;;;;;4972714;28;19914;-71
2023/03/25 03:31:35;;;;;;;12.60;5.55;;;10.40;99.90;;;;;;4940495;28;20507;-71
2023/03/25 03:34:33;;;;;;;13.95;5.72;;;10.40;99.90;;;;;;4972454;28;20555;-70
2023/03/25 03:36:59;;;;;;;15.93;5.88;;;10.40;99.90;;;;;;4991352;28;20074;-71
2023/03/25 03:39:29;;;;;;;12.45;6.32;;;10.40;99.90;;;;;;4975682;28;20049;-71
2023/03/25 03:41:59;;;;;;;13.68;6.15;;;10.40;99.90;;;;;;4976259;28;20471;-71
2023/03/25 03:44:29;;;;;;;16.23;5.70;;;10.40;99.90;;;;;;4975674;28;20038;-71
2023/03/25 03:47:15;;;;;;;14.82;8.00;;;10.40;99.90;;;;;;4975379;28;20305;-71
2023/03/25 03:49:47;;;;;;;14.50;6.05;;;10.50;99.90;;;;;;4975890;28;20499;-71
2023/03/25 03:52:20;;;;;;;16.65;6.30;;;10.50;99.90;;;;;;4998752;28;20034;-71
2023/03/25 03:54:55;;;;;;;14.85;6.03;;;10.50;99.90;;;;;;5029906;28;20040;-70
2023/03/25 03:57:28;;;;;;;17.35;6.43;;;10.50;99.90;;;;;;5030718;28;20037;-71
2023/03/25 04:00:08;;;;;;;13.38;6.10;;;10.50;99.90;;;;;;5029860;28;20501;-70
2023/03/25 04:02:39;;;;;;;15.23;6.03;;;10.50;99.90;;;;;;5013737;28;20049;-71
2023/03/25 04:05:10;;;;;;;13.43;6.28;;;10.50;99.90;;;;;;5047451;28;20092;-71
2023/03/25 04:07:44;;;;;;;24.45;6.93;;;10.50;99.90;;;;;;5046288;28;20053;-71
2023/03/25 04:10:19;;;;;;;14.98;6.60;;;10.50;99.90;;;;;;5030268;28;20021;-71
2023/03/25 04:12:50;;;;;;;25.83;6.50;;;10.50;99.90;;;;;;5032253;28;20482;-70
2023/03/25 04:15:16;;;;;;;21.45;7.38;;;10.50;99.90;;;;;;5007349;28;20022;-71
2023/03/25 04:17:43;;;;;;;18.58;6.40;;;10.40;99.90;;;;;;5008606;28;20037;-71
2023/03/25 04:20:14;;;;;;;22.00;5.90;;;10.40;99.90;;;;;;4993462;28;20054;-71
2023/03/25 04:22:44;;;;;;;25.95;7.18;;;10.50;99.90;;;;;;5010260;28;20042;-71
2023/03/25 04:25:10;;;;;;;25.43;7.90;;;10.40;99.90;;;;;;5013106;28;20033;-71
2023/03/25 04:27:37;;;;;;;21.33;6.80;;;10.50;99.90;;;;;;5012666;28;20053;-71
2023/03/25 04:30:06;;;;;;;20.60;7.43;;;10.50;99.90;;;;;;5017430;28;20029;-70
2023/03/25 04:32:33;;;;;;;26.48;8.23;;;10.40;99.90;;;;;;5032575;28;20033;-71
2023/03/25 04:35:00;;;;;;;28.65;9.70;;;10.50;99.90;;;;;;5032761;28;20045;-71
2023/03/25 04:37:26;;;;;;;18.60;6.85;;;10.50;99.90;;;;;;5032539;28;20022;-71
2023/03/25 04:39:58;;;;;;;19.48;7.03;;;10.50;99.90;;;;;;5032425;28;20025;-71
2023/03/25 04:42:31;;;;;;;25.40;6.93;;;10.50;99.90;;;;;;5031234;28;20482;-71
2023/03/25 04:44:58;;;;;;;21.98;8.15;;;10.50;99.90;;;;;;5032494;28;20467;-71
2023/03/25 04:47:24;;;;;;;15.25;6.22;;;10.50;99.90;;;;;;5032004;28;20041;-70
2023/03/25 04:49:50;;;;;;;17.80;6.63;;;10.50;99.90;;;;;;5030859;28;20042;-71
2023/03/25 04:52:16;;;;;;;18.75;6.82;;;10.50;99.90;;;;;;5032254;28;20029;-71
2023/03/25 04:54:43;;;;;;;19.42;8.23;;;10.50;99.90;;;;;;5032291;28;20040;-70
2023/03/25 04:57:10;;;;;;;23.08;7.78;;;10.50;99.90;;;;;;5032602;28;20046;-71
2023/03/25 04:59:36;;;;;;;20.20;6.57;;;10.50;99.90;;;;;;5031876;28;20398;-71
2023/03/25 05:02:04;;;;;;;20.17;5.95;;;10.60;99.90;;;;;;5031725;28;20030;-71
2023/03/25 05:04:31;;;;;;;17.52;5.90;;;10.50;99.90;;;;;;5014823;28;20038;-71
2023/03/25 05:06:57;;;;;;;17.00;5.85;;;10.60;99.90;;;;;;5032017;28;20271;-71
2023/03/25 05:09:23;;;;;;;17.00;5.30;;;10.60;99.90;;;;;;5032411;28;20029;-70
2023/03/25 05:11:50;;;;;;;21.77;6.25;;;10.60;99.90;;;;;;5030622;28;20032;-71
2023/03/25 05:14:18;;;;;;;15.45;5.30;;;10.60;99.90;;;;;;5012051;28;20030;-71
2023/03/25 05:16:44;;;;;;;20.38;6.05;;;10.50;99.90;;;;;;5012134;28;20038;-70
2023/03/25 05:19:10;;;;;;;20.13;6.63;;;10.60;99.90;;;;;;5012514;28;20042;-71
2023/03/25 05:21:37;;;;;;;18.83;5.95;;;10.60;99.90;;;;;;5012285;28;20046;-71
2023/03/25 05:24:07;;;;;;;19.27;6.47;;;10.50;99.90;;;;;;5012096;28;20045;-70
2023/03/25 05:26:33;;;;;;;20.17;6.22;;;10.50;99.90;;;;;;5012505;28;20037;-71
2023/03/25 05:29:01;;;;;;;14.82;6.72;;;10.50;99.90;;;;;;5011829;28;20042;-71
2023/03/25 05:31:27;;;;;;;18.75;6.70;;;10.50;99.90;;;;;;5029481;28;20033;-71
2023/03/25 05:33:53;;;;;;;24.33;6.60;;;10.50;99.90;;;;;;5032275;28;20413;-71
2023/03/25 05:36:20;;;;;;;26.35;6.88;;;10.60;99.90;;;;;;5032014;28;20041;-71
2023/03/25 05:38:47;;;;;;;19.55;6.70;;;10.60;99.90;;;;;;5032195;28;20469;-71
2023/03/25 05:41:15;;;;;;;19.17;6.82;;;10.60;99.90;;;;;;5033881;28;20056;-71
2023/03/25 05:43:46;;;;;;;16.55;6.70;;;10.50;99.90;;;;;;5035685;28;20402;-70
2023/03/25 05:46:13;;;;;;;19.92;6.40;;;10.50;99.90;;;;;;5035273;28;20105;-70
2023/03/25 05:48:40;;;;;;;16.35;6.70;;;10.40;99.90;;;;;;5035931;28;20057;-70
2023/03/25 05:51:16;;;;;;;16.85;6.30;;;10.50;99.90;;;;;;5034192;28;20045;-70
2023/03/25 05:53:43;;;;;;;23.55;7.13;;;10.50;99.90;;;;;;5034487;28;20041;-70
2023/03/25 05:56:10;;;;;;;14.63;5.82;;;10.50;99.90;;;;;;5035040;28;20053;-70
2023/03/25 05:58:37;;;;;;;22.48;6.80;;;10.50;99.90;;;;;;5035600;28;20052;-70
2023/03/25 06:01:03;;;;;;;21.67;5.90;;;10.50;99.90;;;;;;5035249;28;20502;-71
2023/03/25 06:03:33;;;;;;;25.02;6.47;;;10.50;99.90;;;;;;5035362;28;20025;-70
2023/03/25 06:06:00;;;;;;;22.80;5.88;;;10.50;99.90;;;;;;5035467;28;20064;-70
2023/03/25 06:08:28;;;;;;;24.42;6.18;;;10.50;99.90;;;;;;5035138;28;20038;-70
2023/03/25 06:10:57;;;;;;;19.00;5.95;;;10.50;99.90;;;;;;5035023;28;20060;-70
2023/03/25 06:13:24;;;;;;;21.15;6.00;;;10.50;99.90;;;;;;5021163;28;20042;-69
2023/03/25 06:15:56;;;;;;;24.40;6.20;;;10.50;99.90;;;;;;5014951;28;20026;-70
2023/03/25 06:18:25;;;;;;;23.98;6.95;;;10.50;99.90;;;;;;5015108;28;20042;-70
2023/03/25 06:20:53;;;;;;;25.02;6.97;;;10.50;99.90;;;;;;5015237;28;20026;-70
2023/03/25 06:23:23;;;;;;;24.85;6.50;;;10.50;99.90;;;;;;5015036;28;20490;-70
2023/03/25 06:25:49;;;;;;;30.13;8.02;;;10.50;99.90;;;;;;5014604;28;20049;-70
2023/03/25 06:28:17;;;;;;;26.83;7.05;;;10.50;99.90;;;;;;5014835;28;20077;-70
2023/03/25 06:30:44;;;;;;;20.27;7.65;;;10.60;99.90;;;;;;5026469;28;20037;-70
2023/03/25 06:33:12;;;;;;;28.25;7.05;;;10.60;99.90;;;;;;5035336;28;20045;-70
2023/03/25 06:35:41;;;;;;;30.67;9.15;;;10.60;99.90;;;;;;5034880;28;20037;-70
2023/03/25 06:38:08;;;;;;;30.25;8.20;;;10.60;99.90;;;;;;5035138;28;20038;-70
2023/03/25 06:40:36;;;;;;;21.80;7.28;;;10.60;99.90;;;;;;5034544;28;20045;-70
2023/03/25 06:43:06;;;;;;;24.98;7.50;;;10.70;99.90;;;;;;5033324;28;20048;-70
2023/03/25 06:45:32;;;;;;;24.05;6.60;;;10.70;99.90;;;;;;5034140;28;20502;-70
2023/03/25 06:47:59;;;;;;;26.67;6.80;;;10.70;99.90;;;;;;5034420;28;20045;-70
2023/03/25 06:50:25;;;;;;;26.67;8.18;;;10.80;99.90;;;;;;5034522;28;20483;-70
2023/03/25 06:52:51;;;;;;;27.88;7.28;;;10.80;99.90;;;;;;5033369;28;20498;-70
2023/03/25 06:55:17;;;;;;;24.40;7.75;;;10.80;99.90;;;;;;5034053;28;20021;-70
2023/03/25 06:57:43;;;;;;;27.45;7.82;;;10.90;99.90;;;;;;5034346;28;20386;-70
2023/03/25 07:00:13;;;;;;;19.65;7.20;;;10.90;99.90;;;;;;5033660;28;20026;-69
2023/03/25 07:02:39;;;;;;;21.38;7.03;;;10.90;99.90;;;;;;5034968;28;20038;-70
2023/03/25 07:05:06;;;;;;;21.55;7.78;;;10.90;99.90;;;;;;5034168;28;20040;-70
2023/03/25 07:07:32;;;;;;;23.13;7.03;;;10.90;99.90;;;;;;5033053;28;20037;-72
2023/03/25 07:09:58;;;;;;;21.52;7.40;;;11.00;99.90;;;;;;5033676;28;20029;-70
2023/03/25 07:12:24;;;;;;;18.88;5.93;;;11.10;99.90;;;;;;5027831;28;20369;-71
2023/03/25 07:14:54;;;;;;;18.63;6.20;;;11.10;99.90;;;;;;5014055;28;20030;-71
2023/03/25 07:17:20;;;;;;;22.25;6.32;;;11.20;99.90;;;;;;5013710;28;20503;-71
2023/03/25 07:19:46;;;;;;;19.67;7.03;;;11.20;99.90;;;;;;5014212;28;20382;-70
2023/03/25 07:22:12;;;;;;;19.35;6.78;;;11.20;99.90;;;;;;5013802;28;20046;-70
2023/03/25 07:24:38;;;;;;;18.08;6.90;;;11.20;99.90;;;;;;5013505;28;20037;-70
2023/03/25 07:27:04;;;;;;;26.58;6.65;;;11.20;99.90;;;;;;5013917;28;20026;-70
2023/03/25 07:29:31;;;;;;;24.92;7.28;;;11.20;99.90;;;;;;5015583;28;20054;-70
2023/03/25 07:31:57;;;;;;;20.08;7.10;;;11.30;99.90;;;;;;5033278;28;20037;-70
2023/03/25 07:34:23;;;;;;;18.65;6.95;;;11.30;99.90;;;;;;5033594;28;20029;-70
2023/03/25 07:36:49;;;;;;;20.35;6.95;;;11.30;99.90;;;;;;5032172;28;20036;-70
2023/03/25 07:39:17;;;;;;;26.42;7.65;;;11.30;99.90;;;;;;5033659;28;20518;-71
2023/03/25 07:41:43;;;;;;;23.50;7.13;;;11.30;99.90;;;;;;5033778;28;20041;-70
2023/03/25 07:44:10;;;;;;;20.35;7.40;;;11.40;99.90;;;;;;5033428;28;20025;-70
2023/03/25 07:46:36;;;;;;;26.17;7.88;;;11.40;99.90;;;;;;5033325;28;20045;-70
2023/03/25 07:49:02;;;;;;;19.85;7.45;;;11.50;99.90;;;;;;5033167;28;20045;-70
2023/03/25 07:51:29;;;;;;;25.70;7.43;;;11.50;99.90;;;;;;5033367;28;20030;-70
2023/03/25 07:53:55;;;;;;;21.80;7.47;;;11.50;99.90;;;;;;5033196;28;20064;-72
2023/03/25 07:56:21;;;;;;;17.80;6.95;;;11.50;99.90;;;;;;5033104;28;20034;-72
2023/03/25 07:58:48;;;;;;;24.65;7.97;;;11.60;99.90;;;;;;5033042;28;20060;-72
2023/03/25 08:01:14;;;;;;;27.33;7.30;;;11.60;99.90;;;;;;5032899;28;20033;-72
2023/03/25 08:03:40;;;;;;;26.45;7.75;;;11.70;99.90;;;;;;5033210;28;20041;-72
2023/03/25 08:06:07;;;;;;;23.88;6.88;;;11.80;99.90;;;;;;5032912;28;20398;-72
2023/03/25 08:08:33;;;;;;;21.48;6.43;;;11.80;99.90;;;;;;5032600;28;20037;-72
2023/03/25 08:11:00;;;;;;;20.27;6.78;;;11.80;99.90;;;;;;5033332;28;20390;-72
2023/03/25 08:13:26;;;;;;;21.85;6.70;;;11.80;99.90;;;;;;5018534;28;20041;-72
2023/03/25 08:15:52;;;;;;;17.30;6.28;;;11.90;99.90;;;;;;5012764;28;20038;-72
2023/03/25 08:18:19;;;;;;;25.20;7.03;;;11.90;99.90;;;;;;5012999;28;20056;-72
2023/03/25 08:20:45;;;;;;;16.85;6.07;;;12.00;99.90;;;;;;5012881;28;20061;-71
2023/03/25 08:23:11;;;;;;;22.58;6.53;;;12.10;99.90;;;;;;5012507;28;20049;-72
2023/03/25 08:25:37;;;;;;;16.80;6.85;;;12.10;99.90;;;;;;5012897;28;20025;-71
2023/03/25 08:28:05;;;;;;;22.92;6.82;;;12.10;99.90;;;;;;5012907;28;20053;-71
2023/03/25 08:30:37;;;;;;;26.17;6.93;;;12.10;99.90;;;;;;5022429;28;20037;-72
2023/03/25 08:33:06;;;;;;;19.13;6.82;;;12.10;99.90;;;;;;5032776;28;20045;-71
2023/03/25 08:35:32;;;;;;;24.40;6.95;;;12.20;99.90;;;;;;5030900;28;20033;-72
2023/03/25 08:38:00;;;;;;;18.48;5.63;;;12.30;99.90;;;;;;5031254;28;20029;-72
2023/03/25 08:40:26;;;;;;;18.33;5.63;;;12.30;99.90;;;;;;5032914;28;20036;-71
2023/03/25 08:42:53;;;;;;;29.38;5.80;;;12.30;99.90;;;;;;5032244;28;20026;-71
2023/03/25 08:45:19;;;;;;;29.13;6.63;;;12.30;99.90;;;;;;5032521;28;20045;-71
2023/03/25 08:47:45;;;;;;;19.08;6.10;;;12.40;99.90;;;;;;5032553;28;20033;-72
2023/03/25 08:50:12;;;;;;;21.02;6.70;;;12.40;99.90;;;;;;5031982;28;20040;-71
2023/03/25 08:52:38;;;;;;;22.63;6.97;;;12.60;99.90;;;;;;5031190;28;20094;-72
2023/03/25 08:55:06;;;;;;;20.42;6.78;;;12.60;99.90;;;;;;5032078;28;20467;-71
2023/03/25 08:57:35;;;;;;;18.63;6.30;;;12.70;99.90;;;;;;5032187;28;20037;-72
2023/03/25 09:00:04;;;;;;;24.73;6.15;;;12.80;99.90;;;;;;5032176;28;20036;-72
2023/03/25 09:02:30;;;;;;;21.33;5.72;;;12.90;99.90;;;;;;5031361;28;20033;-72
2023/03/25 09:04:56;;;;;;;26.67;6.18;;;12.90;99.90;;;;;;5031819;28;20029;-72
2023/03/25 09:07:22;;;;;;;22.70;5.65;;;13.00;99.90;;;;;;5032208;28;20048;-72
2023/03/25 09:09:48;;;;;;;21.38;7.43;;;13.10;99.90;;;;;;5032002;28;20033;-72
2023/03/25 09:12:14;;;;;;;23.05;6.55;;;13.20;99.90;;;;;;5027369;28;20381;-72
2023/03/25 09:14:40;;;;;;;24.98;7.00;;;13.30;99.90;;;;;;5012368;28;20030;-72
2023/03/25 09:17:08;;;;;;;24.10;6.90;;;13.30;99.90;;;;;;5015323;28;20128;-72
2023/03/25 09:19:36;;;;;;;21.95;6.32;;;13.40;99.90;;;;;;5016632;28;20487;-73
2023/03/25 09:22:03;;;;;;;21.33;6.57;;;13.40;99.90;;;;;;5016510;28;20046;-72
2023/03/25 09:24:32;;;;;;;26.13;6.88;;;13.50;99.90;;;;;;5016117;28;20038;-71
2023/03/25 09:27:00;;;;;;;19.88;5.80;;;13.60;99.90;;;;;;5016537;28;20375;-72
2023/03/25 09:29:27;;;;;;;19.00;5.82;;;13.60;99.90;;;;;;5016943;28;20050;-71
2023/03/25 09:31:53;;;;;;;23.55;6.25;;;13.70;99.90;;;;;;5035602;28;20030;-72
2023/03/25 09:34:19;;;;;;;18.70;5.50;;;13.70;99.90;;;;;;5035389;28;20044;-72
2023/03/25 09:36:46;;;;;;;20.83;7.20;;;13.80;99.90;;;;;;5036121;28;20040;-71
2023/03/25 09:39:12;;;;;;;19.33;6.38;;;13.80;99.90;;;;;;5035998;28;20042;-72
2023/03/25 09:41:57;;;;;;;17.80;6.78;;;13.80;99.90;;;;;;5035583;28;20029;-72
2023/03/25 09:44:46;;;;;;;24.60;6.07;;;13.80;99.90;;;;;;5034437;28;20490;-72
2023/03/25 09:47:12;;;;;;;24.02;6.88;;;13.80;99.90;;;;;;5034426;28;20037;-72
2023/03/25 09:49:40;;;;;;;22.10;7.75;;;14.00;99.90;;;;;;5034235;28;20033;-81
2023/03/25 09:52:14;;;;;;;27.52;9.35;;;14.20;99.90;;;;;;5018020;28;20042;-81
2023/03/25 09:54:43;;;;;;;21.67;7.88;;;14.30;99.90;;;;;;5018601;28;20029;-81
2023/03/25 09:57:12;;;;;;;16.98;5.10;;;14.40;99.90;;;;;;5017913;28;20374;-82
2023/03/25 09:59:43;;;;;;;17.67;6.43;;;14.50;99.90;;;;;;5034071;28;20056;-81
2023/03/25 10:02:32;;;;;;;25.38;6.80;;;14.40;99.90;;;;;;5033568;28;20033;-80
2023/03/25 10:05:17;;;;;;;20.25;6.22;;;14.50;99.90;;;;;;5019628;28;20037;-81
2023/03/25 10:08:14;;;;;;;23.02;6.03;;;14.50;99.90;;;;;;5033966;28;20387;-81
2023/03/25 10:10:50;;;;;;;21.55;5.70;;;14.60;99.90;;;;;;5032816;28;20052;-81
2023/03/25 10:13:40;;;;;;;19.73;6.00;;;14.80;99.90;;;;;;5022233;28;20038;-81
2023/03/25 10:16:31;;;;;;;20.85;6.05;;;14.80;99.90;;;;;;5014879;28;20053;-81
2023/03/25 10:19:20;;;;;;;18.73;5.82;;;14.90;99.90;;;;;;5013842;28;20386;-81
2023/03/25 10:21:57;;;;;;;20.77;6.55;;;15.10;99.90;;;;;;5000246;28;20038;-81
2023/03/25 10:24:55;;;;;;;18.67;5.15;;;15.00;99.90;;;;;;5013730;28;20046;-80
2023/03/25 10:28:00;;;;;;;20.17;5.90;;;15.00;99.90;;;;;;5014215;28;20030;-80
2023/03/25 10:30:41;;;;;;;17.05;4.80;;;15.00;99.90;;;;;;5021610;28;20513;-80
2023/03/25 10:33:39;;;;;;;16.42;5.53;;;14.90;99.90;;;;;;5032243;28;20149;-80
2023/03/25 10:36:06;;;;;;;20.00;5.60;;;14.90;99.90;;;;;;5025776;28;20034;-80
2023/03/25 10:38:33;;;;;;;17.70;5.15;;;14.90;99.90;;;;;;5016180;28;20034;-80
2023/03/25 10:41:02;;;;;;;15.43;4.57;;;14.90;99.90;;;;;;5015266;28;20411;-80
2023/03/25 10:43:30;;;;;;;16.55;5.55;;;14.90;99.90;;;;;;5032421;28;20044;-80
2023/03/25 10:46:20;;;;;;;15.18;5.20;;;14.90;99.90;;;;;;5015198;28;20152;-80
2023/03/25 10:48:46;;;;;;;16.77;6.50;;;14.90;99.90;;;;;;5019470;28;20065;-80
2023/03/25 10:51:27;;;;;;;19.50;5.13;;;14.90;99.90;;;;;;5015913;28;20038;-80
2023/03/25 10:53:53;;;;;;;20.48;5.07;;;14.90;99.90;;;;;;5015858;28;20036;-80
2023/03/25 10:56:24;;;;;;;22.25;5.43;;;14.90;99.90;;;;;;5031482;28;20042;-80
2023/03/25 10:58:55;;;;;;;16.40;5.40;;;14.90;99.90;;;;;;5015868;28;20033;-80
2023/03/25 11:01:39;;;;;;;19.00;5.50;;;14.80;99.90;;;;;;5022629;28;20026;-80
2023/03/25 11:04:06;;;;;;;19.42;6.40;;;14.80;99.90;;;;;;5033039;28;20032;-79
2023/03/25 11:06:35;;;;;;;19.38;5.60;;;15.00;99.90;;;;;;5016810;28;20029;-80
2023/03/25 11:09:07;;;;;;;16.20;5.47;;;15.10;99.90;;;;;;5034045;28;20033;-80
2023/03/25 11:11:34;;;;;;;20.33;6.43;;;15.10;99.90;;;;;;5034212;28;20037;-80
2023/03/25 11:14:02;;;;;;;14.95;5.82;;;15.20;99.90;;;;;;5013734;28;20369;-80
2023/03/25 11:16:32;;;;;;;24.75;6.25;;;15.20;99.90;;;;;;5011874;28;20038;-80
2023/03/25 11:19:02;;;;;;;17.48;5.20;;;15.20;99.90;;;;;;5029117;28;20042;-79
2023/03/25 11:21:32;;;;;;;24.20;6.60;;;15.20;99.90;;;;;;5012797;28;20052;-79
2023/03/25 11:23:59;;;;;;;23.02;5.63;;;15.30;99.90;;;;;;5012437;28;20506;-80
2023/03/25 11:26:31;;;;;;;19.75;6.00;;;15.30;99.90;;;;;;4996169;28;20034;-80
2023/03/25 11:29:04;;;;;;;17.23;5.30;;;15.20;99.90;;;;;;4996311;28;20054;-80
2023/03/25 11:31:33;;;;;;;21.13;5.82;;;15.20;99.90;;;;;;5030151;28;20026;-79
2023/03/25 11:34:13;;;;;;;20.05;4.95;;;15.10;99.90;;;;;;5033796;28;20036;-79
2023/03/25 11:37:08;;;;;;;21.50;6.03;;;15.00;99.90;;;;;;5017200;28;20029;-80
2023/03/25 11:39:38;;;;;;;19.98;5.82;;;15.10;99.90;;;;;;5032521;28;20044;-80
2023/03/25 11:42:21;;;;;;;20.60;5.83;;;15.20;99.90;;;;;;5032594;28;20036;-80
2023/03/25 11:44:54;;;;;;;25.05;5.60;;;15.30;99.90;;;;;;5031979;28;20040;-81
2023/03/25 11:47:33;;;;;;;17.88;5.85;;;15.40;99.90;;;;;;5015241;28;20056;-80
2023/03/25 11:50:00;;;;;;;13.35;5.13;;;15.40;99.90;;;;;;5032089;28;20059;-80
2023/03/25 11:52:45;;;;;;;23.35;5.50;;;15.40;99.90;;;;;;5033200;28;20025;-80
2023/03/25 11:55:26;;;;;;;24.15;5.35;;;15.40;99.90;;;;;;5031975;28;20029;-80
2023/03/25 11:57:52;;;;;;;;;;;15.50;99.90;;;;;;5032422;28;20079;-79
2023/03/25 12:00:25;;;;;;;21.27;6.18;;;15.50;99.90;;;;;;5031130;28;19913;-80
2023/03/25 12:03:13;;;;;;;18.85;5.55;;;15.50;99.90;;;;;;5033175;28;20029;-80
2023/03/25 12:05:40;;;;;;;20.48;6.13;;;15.50;99.90;;;;;;5031905;28;20029;-80
2023/03/25 12:08:14;;;;;;;24.05;5.90;;;15.30;99.90;;;;;;5015656;28;20044;-80
2023/03/25 12:10:55;;;;;;;20.98;6.03;;;15.30;99.90;;;;;;5016234;28;20478;-80
2023/03/25 12:13:39;;;;;;;29.77;6.85;;;15.40;99.90;;;;;;5017480;28;20029;-80
2023/03/25 12:16:20;;;;;;;20.98;5.97;;;15.50;99.90;;;;;;5012811;28;20041;-79
2023/03/25 12:19:04;;;;;;;17.38;5.78;;;15.60;99.90;;;;;;5029885;28;20026;-79
2023/03/25 12:22:01;;;;;;;22.90;5.45;;;15.60;99.90;;;;;;5012926;28;20069;-79
2023/03/25 12:24:53;;;;;;;22.65;5.80;;;15.70;99.90;;;;;;5011727;28;20030;-80
2023/03/25 12:27:32;;;;;;;20.60;5.53;;;15.70;99.90;;;;;;5011757;28;20403;-79
2023/03/25 12:30:34;;;;;;;21.08;5.78;;;15.80;99.90;;;;;;5018435;28;20037;-80
2023/03/25 12:33:16;;;;;;;16.35;5.93;;;15.80;99.90;;;;;;5031719;28;20036;-79
2023/03/25 12:36:04;;;;;;;11.43;4.88;;;15.70;99.90;;;;;;5032433;28;20379;-80
2023/03/25 12:38:49;;;;;;;20.83;5.78;;;15.60;99.90;;;;;;5032501;28;20375;-79
2023/03/25 12:41:21;;;;;;;24.02;6.75;;;15.70;99.90;;;;;;5032674;28;20029;-79
2023/03/25 12:44:06;;;;;;;18.10;5.25;;;15.70;99.90;;;;;;4999068;28;20041;-80
2023/03/25 12:47:11;;;;;;;21.10;6.03;;;15.80;99.90;;;;;;5015613;28;20513;-79
2023/03/25 12:49:53;;;;;;;20.20;6.13;;;15.80;99.90;;;;;;5029717;28;20045;-80
2023/03/25 12:52:35;;;;;;;23.98;4.90;;;15.90;99.90;;;;;;5013478;28;20040;-80
2023/03/25 12:55:03;;;;;;;;;;;16.00;99.90;;;;;;5014744;28;20033;-79
2023/03/25 12:58:01;;;;;;;20.80;5.43;;;16.00;99.90;;;;;;5029886;28;19916;-80
2023/03/25 13:00:56;;;;;;;20.83;4.93;;;15.80;99.90;;;;;;4970781;28;20480;-79